PWSweather.com
Personal Weather Stations
Station Observations
KMDSOLOM1
solomons, Solomons, MD 20688

solomonsSolomons, MD 20688

Lat: 38.32, Lon: -76.45

Elevation: 5

Station Type:

http://www.act-us.info/weather

Latest ConditionsUpdated 8:35:07 AM EST Friday, Feb 22, 2019
Currently Today's Max Today's Min Today's Average
Temperature 43.4°F6.3°C 45.8°F7.7°C 42.6°F5.9°C 43.8°F6.6°C
Dew Point 38.9°F3.8°C 41.7°F5.4°C 36.7°F2.6°C 39.4°F4.1°C
Winds 2.0 mph WNW3.2 kmh WNW 5.0 mph -8.0 kmh - - 1.2 mph 1.9 kmh
Wind Gusts 3.0 mph4.8 kmh 8.0 mph12.9 kmh - -
Humidity 84% 94% 75% 84%
Pressure 30.28 in1025.4 mb 30.29 in1025.7 mb 30.13 in1020.3 mb -
Hour Temp Dew Point Humidity Winds Wind Gusts Pressure Precip Precip Rate Daily Precip Total
08:35 AM 43.4°F6.3°C 38.9°F3.8°C 84% 2.0 mph WNW3.2 kmh WNW 3.0 mph4.8 kmh 30.28 in1025.4 mb 0.00 in0.0 mm 0.00 in0.0 mm 0.01 in0.3 mm
08:30 AM 43.3°F6.3°C 38.2°F3.4°C 82% 1.0 mph WNW1.6 kmh WNW 3.0 mph4.8 kmh 30.29 in1025.7 mb 0.00 in0.0 mm 0.00 in0.0 mm 0.01 in0.3 mm
08:25 AM 43.2°F6.2°C 37.8°F3.2°C 81% 2.0 mph WNW3.2 kmh WNW 2.0 mph3.2 kmh 30.29 in1025.7 mb 0.00 in0.0 mm 0.00 in0.0 mm 0.01 in0.3 mm
08:20 AM 43.1°F6.2°C 38.3°F3.5°C 83% 1.0 mph WNW1.6 kmh WNW 2.0 mph3.2 kmh 30.29 in1025.7 mb 0.00 in0.0 mm 0.00 in0.0 mm 0.01 in0.3 mm
08:15 AM 43.2°F6.2°C 39.0°F3.9°C 85% 1.0 mph WNW1.6 kmh WNW 1.0 mph1.6 kmh 30.29 in1025.7 mb 0.00 in0.0 mm 0.00 in0.0 mm 0.01 in0.3 mm
08:10 AM 43.3°F6.3°C 39.1°F3.9°C 85% Calm Calm -- 30.29 in1025.7 mb 0.00 in0.0 mm 0.00 in0.0 mm 0.01 in0.3 mm
08:05 AM 43.4°F6.3°C 39.2°F4.0°C 85% Calm Calm -- 30.29 in1025.7 mb 0.00 in0.0 mm 0.00 in0.0 mm 0.01 in0.3 mm
08:00 AM 43.4°F6.3°C 39.2°F4.0°C 85% Calm Calm -- 30.29 in1025.7 mb 0.00 in0.0 mm 0.00 in0.0 mm 0.01 in0.3 mm
07:55 AM 43.4°F6.3°C 39.2°F4.0°C 85% Calm Calm 2.0 mph3.2 kmh 30.29 in1025.7 mb 0.00 in0.0 mm 0.00 in0.0 mm 0.01 in0.3 mm
07:50 AM 43.4°F6.3°C 38.9°F3.8°C 84% Calm Calm 2.0 mph3.2 kmh 30.28 in1025.4 mb 0.00 in0.0 mm 0.00 in0.0 mm 0.01 in0.3 mm
07:45 AM 43.4°F6.3°C 38.9°F3.8°C 84% 1.0 mph WNW1.6 kmh WNW 1.0 mph1.6 kmh 30.28 in1025.4 mb 0.00 in0.0 mm 0.00 in0.0 mm 0.01 in0.3 mm
07:40 AM 43.5°F6.4°C 39.0°F3.9°C 84% 1.0 mph WNW1.6 kmh WNW 4.0 mph6.4 kmh 30.27 in1025.1 mb 0.00 in0.0 mm 0.00 in0.0 mm 0.01 in0.3 mm
07:35 AM 43.5°F6.4°C 38.7°F3.7°C 83% 2.0 mph WNW3.2 kmh WNW 4.0 mph6.4 kmh 30.27 in1025.1 mb 0.00 in0.0 mm 0.00 in0.0 mm 0.01 in0.3 mm
07:30 AM 43.5°F6.4°C 38.7°F3.7°C 83% 1.0 mph WNW1.6 kmh WNW 4.0 mph6.4 kmh 30.27 in1025.1 mb 0.00 in0.0 mm 0.00 in0.0 mm 0.01 in0.3 mm
07:25 AM 43.5°F6.4°C 38.4°F3.6°C 82% 2.0 mph WNW3.2 kmh WNW 2.0 mph3.2 kmh 30.28 in1025.4 mb 0.00 in0.0 mm 0.00 in0.0 mm 0.01 in0.3 mm
07:20 AM 43.5°F6.4°C 38.7°F3.7°C 83% 1.0 mph WNW1.6 kmh WNW 2.0 mph3.2 kmh 30.27 in1025.1 mb 0.00 in0.0 mm 0.00 in0.0 mm 0.01 in0.3 mm
07:15 AM 43.5°F6.4°C 38.4°F3.6°C 82% Calm Calm 1.0 mph1.6 kmh 30.26 in1024.7 mb 0.00 in0.0 mm 0.00 in0.0 mm 0.01 in0.3 mm
07:10 AM 43.4°F6.3°C 38.3°F3.5°C 82% 1.0 mph WNW1.6 kmh WNW 3.0 mph4.8 kmh 30.26 in1024.7 mb 0.00 in0.0 mm 0.00 in0.0 mm 0.01 in0.3 mm
07:05 AM 43.4°F6.3°C 38.3°F3.5°C 82% 1.0 mph WNW1.6 kmh WNW 3.0 mph4.8 kmh 30.25 in1024.4 mb 0.00 in0.0 mm 0.00 in0.0 mm 0.01 in0.3 mm
07:00 AM 43.5°F6.4°C 38.4°F3.6°C 82% 2.0 mph WNW3.2 kmh WNW 2.0 mph3.2 kmh 30.25 in1024.4 mb 0.00 in0.0 mm 0.00 in0.0 mm 0.01 in0.3 mm
06:55 AM 43.6°F6.4°C 38.2°F3.4°C 81% 2.0 mph WNW3.2 kmh WNW 3.0 mph4.8 kmh 30.24 in1024.0 mb 0.00 in0.0 mm 0.00 in0.0 mm 0.01 in0.3 mm
06:50 AM 43.7°F6.5°C 38.3°F3.5°C 81% 1.0 mph WNW1.6 kmh WNW 1.0 mph1.6 kmh 30.25 in1024.4 mb 0.00 in0.0 mm 0.00 in0.0 mm 0.01 in0.3 mm
06:45 AM 43.8°F6.6°C 38.4°F3.6°C 81% Calm Calm -- 30.24 in1024.0 mb 0.00 in0.0 mm 0.00 in0.0 mm 0.01 in0.3 mm
06:40 AM 43.8°F6.6°C 38.4°F3.6°C 81% Calm Calm 2.0 mph3.2 kmh 30.23 in1023.7 mb 0.00 in0.0 mm 0.00 in0.0 mm 0.01 in0.3 mm
06:35 AM 43.9°F6.6°C 38.1°F3.4°C 80% Calm Calm 2.0 mph3.2 kmh 30.23 in1023.7 mb 0.00 in0.0 mm 0.00 in0.0 mm 0.01 in0.3 mm
06:30 AM 43.9°F6.6°C 38.1°F3.4°C 80% 1.0 mph WNW1.6 kmh WNW 2.0 mph3.2 kmh 30.23 in1023.7 mb 0.00 in0.0 mm 0.00 in0.0 mm 0.01 in0.3 mm
06:25 AM 44.0°F6.7°C 37.9°F3.3°C 79% 1.0 mph WNW1.6 kmh WNW 4.0 mph6.4 kmh 30.23 in1023.7 mb 0.00 in0.0 mm 0.00 in0.0 mm 0.01 in0.3 mm
06:20 AM 44.0°F6.7°C 37.9°F3.3°C 79% 2.0 mph WNW3.2 kmh WNW 4.0 mph6.4 kmh 30.24 in1024.0 mb 0.00 in0.0 mm 0.00 in0.0 mm 0.01 in0.3 mm
06:15 AM 44.1°F6.7°C 38.0°F3.3°C 79% 1.0 mph WNW1.6 kmh WNW 3.0 mph4.8 kmh 30.23 in1023.7 mb 0.00 in0.0 mm 0.00 in0.0 mm 0.01 in0.3 mm
06:10 AM 44.2°F6.8°C 38.1°F3.4°C 79% 2.0 mph WNW3.2 kmh WNW 3.0 mph4.8 kmh 30.22 in1023.4 mb 0.00 in0.0 mm 0.00 in0.0 mm 0.01 in0.3 mm
06:05 AM 44.3°F6.8°C 38.2°F3.4°C 79% 2.0 mph WNW3.2 kmh WNW 3.0 mph4.8 kmh 30.21 in1023.0 mb 0.00 in0.0 mm 0.00 in0.0 mm 0.01 in0.3 mm
06:00 AM 44.5°F6.9°C 38.1°F3.4°C 78% 1.0 mph WNW1.6 kmh WNW 3.0 mph4.8 kmh 30.21 in1023.0 mb 0.00 in0.0 mm 0.00 in0.0 mm 0.01 in0.3 mm
05:55 AM 44.6°F7.0°C 37.9°F3.3°C 77% 2.0 mph WNW3.2 kmh WNW 4.0 mph6.4 kmh 30.22 in1023.4 mb 0.00 in0.0 mm 0.00 in0.0 mm 0.01 in0.3 mm
05:50 AM 44.4°F6.9°C 37.0°F2.8°C 75% 2.0 mph WNW3.2 kmh WNW 4.0 mph6.4 kmh 30.22 in1023.4 mb 0.00 in0.0 mm 0.00 in0.0 mm 0.01 in0.3 mm
05:45 AM 44.1°F6.7°C 36.7°F2.6°C 75% 2.0 mph WNW3.2 kmh WNW 4.0 mph6.4 kmh 30.22 in1023.4 mb 0.00 in0.0 mm 0.00 in0.0 mm 0.01 in0.3 mm
05:40 AM 44.0°F6.7°C 37.6°F3.1°C 78% 1.0 mph WNW1.6 kmh WNW 4.0 mph6.4 kmh 30.21 in1023.0 mb 0.00 in0.0 mm 0.00 in0.0 mm 0.01 in0.3 mm
05:35 AM 43.9°F6.6°C 38.1°F3.4°C 80% 3.0 mph WNW4.8 kmh WNW 4.0 mph6.4 kmh 30.20 in1022.7 mb 0.00 in0.0 mm 0.00 in0.0 mm 0.01 in0.3 mm
05:30 AM 43.9°F6.6°C 37.8°F3.2°C 79% 2.0 mph WNW3.2 kmh WNW 2.0 mph3.2 kmh 30.19 in1022.4 mb 0.00 in0.0 mm 0.00 in0.0 mm 0.01 in0.3 mm
05:25 AM 43.7°F6.5°C 37.3°F2.9°C 78% 4.0 mph WNW6.4 kmh WNW 8.0 mph12.9 kmh 30.19 in1022.4 mb 0.00 in0.0 mm 0.00 in0.0 mm 0.01 in0.3 mm
05:20 AM 43.4°F6.3°C 37.7°F3.2°C 80% 3.0 mph WNW4.8 kmh WNW 8.0 mph12.9 kmh 30.19 in1022.4 mb 0.00 in0.0 mm 0.00 in0.0 mm 0.01 in0.3 mm
05:15 AM 43.4°F6.3°C 38.6°F3.7°C 83% 2.0 mph WNW3.2 kmh WNW 5.0 mph8.0 kmh 30.19 in1022.4 mb 0.00 in0.0 mm 0.00 in0.0 mm 0.01 in0.3 mm
05:10 AM 43.4°F6.3°C 38.6°F3.7°C 83% 1.0 mph WNW1.6 kmh WNW 3.0 mph4.8 kmh 30.19 in1022.4 mb 0.00 in0.0 mm 0.00 in0.0 mm 0.01 in0.3 mm
05:05 AM 43.5°F6.4°C 39.0°F3.9°C 84% 2.0 mph WNW3.2 kmh WNW 3.0 mph4.8 kmh 30.19 in1022.4 mb 0.00 in0.0 mm 0.00 in0.0 mm 0.01 in0.3 mm
05:00 AM 43.5°F6.4°C 39.0°F3.9°C 84% Calm Calm -- 30.19 in1022.4 mb 0.00 in0.0 mm 0.00 in0.0 mm 0.01 in0.3 mm
04:55 AM 43.5°F6.4°C 38.7°F3.7°C 83% Calm Calm 1.0 mph1.6 kmh 30.19 in1022.4 mb 0.00 in0.0 mm 0.00 in0.0 mm 0.01 in0.3 mm
04:50 AM 43.6°F6.4°C 38.8°F3.8°C 83% Calm Calm 1.0 mph1.6 kmh 30.19 in1022.4 mb 0.00 in0.0 mm 0.00 in0.0 mm 0.01 in0.3 mm
04:45 AM 43.7°F6.5°C 38.9°F3.8°C 83% Calm Calm 1.0 mph1.6 kmh 30.19 in1022.4 mb 0.00 in0.0 mm 0.00 in0.0 mm 0.01 in0.3 mm
04:40 AM 43.7°F6.5°C 38.9°F3.8°C 83% 2.0 mph WNW3.2 kmh WNW 4.0 mph6.4 kmh 30.19 in1022.4 mb 0.00 in0.0 mm 0.00 in0.0 mm 0.01 in0.3 mm
04:35 AM 43.8°F6.6°C 38.7°F3.7°C 82% 2.0 mph WNW3.2 kmh WNW 4.0 mph6.4 kmh 30.19 in1022.4 mb 0.00 in0.0 mm 0.00 in0.0 mm 0.01 in0.3 mm
04:30 AM 43.7°F6.5°C 38.3°F3.5°C 81% 1.0 mph WNW1.6 kmh WNW 2.0 mph3.2 kmh 30.18 in1022.0 mb 0.00 in0.0 mm 0.00 in0.0 mm 0.01 in0.3 mm
04:25 AM 43.8°F6.6°C 38.4°F3.6°C 81% 3.0 mph WNW4.8 kmh WNW 5.0 mph8.0 kmh 30.19 in1022.4 mb 0.01 in0.3 mm 0.00 in0.0 mm 0.01 in0.3 mm
04:20 AM 44.0°F6.7°C 38.9°F3.8°C 82% 1.0 mph WNW1.6 kmh WNW 5.0 mph8.0 kmh 30.19 in1022.4 mb 0.01 in0.3 mm 0.00 in0.0 mm 0.01 in0.3 mm
04:15 AM 44.2°F6.8°C 39.4°F4.1°C 83% 3.0 mph WNW4.8 kmh WNW 5.0 mph8.0 kmh 30.19 in1022.4 mb 0.01 in0.3 mm 0.00 in0.0 mm 0.01 in0.3 mm
04:10 AM 44.3°F6.8°C 38.5°F3.6°C 80% 4.0 mph WNW6.4 kmh WNW 5.0 mph8.0 kmh 30.18 in1022.0 mb 0.01 in0.3 mm 0.00 in0.0 mm 0.01 in0.3 mm
04:05 AM 44.3°F6.8°C 38.2°F3.4°C 79% 1.0 mph WNW1.6 kmh WNW 5.0 mph8.0 kmh 30.18 in1022.0 mb 0.01 in0.3 mm 0.00 in0.0 mm 0.01 in0.3 mm
04:00 AM 44.3°F6.8°C 37.9°F3.3°C 78% 2.0 mph WNW3.2 kmh WNW 5.0 mph8.0 kmh 30.18 in1022.0 mb 0.01 in0.3 mm 0.00 in0.0 mm 0.01 in0.3 mm
03:55 AM 44.1°F6.7°C 38.0°F3.3°C 79% 5.0 mph WNW8.0 kmh WNW 5.0 mph8.0 kmh 30.19 in1022.4 mb 0.01 in0.3 mm 0.00 in0.0 mm 0.01 in0.3 mm
03:50 AM 43.9°F6.6°C 38.1°F3.4°C 80% 3.0 mph WNW4.8 kmh WNW 5.0 mph8.0 kmh 30.19 in1022.4 mb 0.01 in0.3 mm 0.00 in0.0 mm 0.01 in0.3 mm
03:45 AM 43.9°F6.6°C 39.1°F3.9°C 83% 1.0 mph WNW1.6 kmh WNW 5.0 mph8.0 kmh 30.19 in1022.4 mb 0.01 in0.3 mm 0.00 in0.0 mm 0.01 in0.3 mm
03:40 AM 43.8°F6.6°C 39.3°F4.1°C 84% 2.0 mph WNW3.2 kmh WNW 8.0 mph12.9 kmh 30.18 in1022.0 mb 0.01 in0.3 mm 0.00 in0.0 mm 0.01 in0.3 mm
03:35 AM 43.7°F6.5°C 39.5°F4.2°C 85% 4.0 mph WNW6.4 kmh WNW 8.0 mph12.9 kmh 30.18 in1022.0 mb 0.01 in0.3 mm 0.00 in0.0 mm 0.01 in0.3 mm
03:30 AM 43.6°F6.4°C 39.7°F4.3°C 86% 2.0 mph WNW3.2 kmh WNW 4.0 mph6.4 kmh 30.18 in1022.0 mb 0.01 in0.3 mm 0.12 in3.0 mm 0.01 in0.3 mm
03:25 AM 43.6°F6.4°C 39.7°F4.3°C 86% 2.0 mph WNW3.2 kmh WNW 4.0 mph6.4 kmh 30.18 in1022.0 mb 0.00 in0.0 mm 0.00 in0.0 mm 0.00 in0.0 mm
03:20 AM 43.8°F6.6°C 39.9°F4.4°C 86% 3.0 mph WNW4.8 kmh WNW 4.0 mph6.4 kmh 30.18 in1022.0 mb 0.00 in0.0 mm 0.00 in0.0 mm 0.00 in0.0 mm
03:15 AM 43.8°F6.6°C 39.9°F4.4°C 86% 1.0 mph WNW1.6 kmh WNW 1.0 mph1.6 kmh 30.19 in1022.4 mb 0.00 in0.0 mm 0.00 in0.0 mm 0.00 in0.0 mm
03:10 AM 43.8°F6.6°C 39.9°F4.4°C 86% Calm Calm -- 30.19 in1022.4 mb 0.00 in0.0 mm 0.00 in0.0 mm 0.00 in0.0 mm
03:05 AM 43.8°F6.6°C 39.6°F4.2°C 85% Calm Calm -- 30.19 in1022.4 mb 0.00 in0.0 mm 0.00 in0.0 mm 0.00 in0.0 mm
03:00 AM 43.8°F6.6°C 39.6°F4.2°C 85% Calm Calm -- 30.19 in1022.4 mb 0.00 in0.0 mm 0.00 in0.0 mm 0.00 in0.0 mm
02:55 AM 43.7°F6.5°C 39.8°F4.3°C 86% 1.0 mph WNW1.6 kmh WNW 4.0 mph6.4 kmh 30.19 in1022.4 mb 0.00 in0.0 mm 0.00 in0.0 mm 0.00 in0.0 mm
02:50 AM 43.7°F6.5°C 40.1°F4.5°C 87% 2.0 mph WNW3.2 kmh WNW 4.0 mph6.4 kmh 30.19 in1022.4 mb 0.00 in0.0 mm 0.00 in0.0 mm 0.00 in0.0 mm
02:45 AM 43.6°F6.4°C 40.0°F4.4°C 87% 2.0 mph WNW3.2 kmh WNW 4.0 mph6.4 kmh 30.19 in1022.4 mb 0.00 in0.0 mm 0.00 in0.0 mm 0.00 in0.0 mm
02:40 AM 43.6°F6.4°C 40.6°F4.8°C 89% Calm Calm -- 30.19 in1022.4 mb 0.00 in0.0 mm 0.00 in0.0 mm 0.00 in0.0 mm
02:35 AM 43.7°F6.5°C 40.7°F4.8°C 89% Calm Calm -- 30.18 in1022.0 mb 0.00 in0.0 mm 0.00 in0.0 mm 0.00 in0.0 mm
02:30 AM 43.8°F6.6°C 40.8°F4.9°C 89% Calm Calm -- 30.18 in1022.0 mb 0.00 in0.0 mm 0.00 in0.0 mm 0.00 in0.0 mm
02:25 AM 43.8°F6.6°C 40.5°F4.7°C 88% Calm Calm -- 30.18 in1022.0 mb 0.00 in0.0 mm 0.00 in0.0 mm 0.00 in0.0 mm
02:20 AM 43.9°F6.6°C 40.6°F4.8°C 88% Calm Calm -- 30.18 in1022.0 mb 0.00 in0.0 mm 0.00 in0.0 mm 0.00 in0.0 mm
02:15 AM 44.0°F6.7°C 40.4°F4.7°C 87% Calm Calm -- 30.18 in1022.0 mb 0.00 in0.0 mm 0.00 in0.0 mm 0.00 in0.0 mm
02:10 AM 44.1°F6.7°C 40.5°F4.7°C 87% 1.0 mph WNW1.6 kmh WNW 2.0 mph3.2 kmh 30.17 in1021.7 mb 0.00 in0.0 mm 0.00 in0.0 mm 0.00 in0.0 mm
02:05 AM 44.3°F6.8°C 40.4°F4.7°C 86% Calm Calm -- 30.17 in1021.7 mb 0.00 in0.0 mm 0.00 in0.0 mm 0.00 in0.0 mm
02:00 AM 44.7°F7.1°C 40.2°F4.6°C 84% Calm Calm -- 30.17 in1021.7 mb 0.00 in0.0 mm 0.00 in0.0 mm 0.00 in0.0 mm
01:55 AM 45.2°F7.3°C 40.4°F4.7°C 83% Calm Calm -- 30.16 in1021.3 mb 0.00 in0.0 mm 0.00 in0.0 mm 0.00 in0.0 mm
01:50 AM 45.8°F7.7°C 40.6°F4.8°C 82% Calm Calm -- 30.17 in1021.7 mb 0.00 in0.0 mm 0.00 in0.0 mm 0.00 in0.0 mm
01:45 AM 45.8°F7.7°C 40.6°F4.8°C 82% Calm Calm -- 30.17 in1021.7 mb 0.00 in0.0 mm 0.00 in0.0 mm 0.00 in0.0 mm
01:40 AM 45.6°F7.6°C 40.1°F4.5°C 81% Calm Calm 2.0 mph3.2 kmh 30.17 in1021.7 mb 0.00 in0.0 mm 0.00 in0.0 mm 0.00 in0.0 mm
01:35 AM 45.3°F7.4°C 40.8°F4.9°C 84% Calm Calm 2.0 mph3.2 kmh 30.17 in1021.7 mb 0.00 in0.0 mm 0.00 in0.0 mm 0.00 in0.0 mm
01:30 AM 44.7°F7.1°C 40.5°F4.7°C 85% Calm Calm 2.0 mph3.2 kmh 30.17 in1021.7 mb 0.00 in0.0 mm 0.00 in0.0 mm 0.00 in0.0 mm
01:25 AM 44.4°F6.9°C 40.8°F4.9°C 87% 3.0 mph WNW4.8 kmh WNW 4.0 mph6.4 kmh 30.17 in1021.7 mb 0.00 in0.0 mm 0.00 in0.0 mm 0.00 in0.0 mm
01:20 AM 44.1°F6.7°C 41.1°F5.1°C 89% 1.0 mph WNW1.6 kmh WNW 4.0 mph6.4 kmh 30.17 in1021.7 mb 0.00 in0.0 mm 0.00 in0.0 mm 0.00 in0.0 mm
01:15 AM 43.9°F6.6°C 41.5°F5.3°C 91% 2.0 mph WNW3.2 kmh WNW 4.0 mph6.4 kmh 30.17 in1021.7 mb 0.00 in0.0 mm 0.00 in0.0 mm 0.00 in0.0 mm
01:10 AM 43.7°F6.5°C 41.3°F5.2°C 91% 3.0 mph WNW4.8 kmh WNW 4.0 mph6.4 kmh 30.17 in1021.7 mb 0.00 in0.0 mm 0.00 in0.0 mm 0.00 in0.0 mm
01:05 AM 43.6°F6.4°C 41.4°F5.2°C 92% 2.0 mph WNW3.2 kmh WNW 4.0 mph6.4 kmh 30.16 in1021.3 mb 0.00 in0.0 mm 0.00 in0.0 mm 0.00 in0.0 mm
01:00 AM 43.6°F6.4°C 41.4°F5.2°C 92% 1.0 mph WNW1.6 kmh WNW 4.0 mph6.4 kmh 30.16 in1021.3 mb 0.00 in0.0 mm 0.00 in0.0 mm 0.00 in0.0 mm
12:55 AM 43.7°F6.5°C 41.5°F5.3°C 92% Calm Calm 2.0 mph3.2 kmh 30.15 in1021.0 mb 0.00 in0.0 mm 0.00 in0.0 mm 0.00 in0.0 mm
12:50 AM 43.7°F6.5°C 41.5°F5.3°C 92% Calm Calm -- 30.15 in1021.0 mb 0.00 in0.0 mm 0.00 in0.0 mm 0.00 in0.0 mm
12:45 AM 43.7°F6.5°C 41.5°F5.3°C 92% Calm Calm -- 30.15 in1021.0 mb 0.00 in0.0 mm 0.00 in0.0 mm 0.00 in0.0 mm
12:40 AM 43.6°F6.4°C 41.7°F5.4°C 93% 1.0 mph WNW1.6 kmh WNW 2.0 mph3.2 kmh 30.15 in1021.0 mb 0.00 in0.0 mm 0.00 in0.0 mm 0.00 in0.0 mm
12:35 AM 43.5°F6.4°C 41.6°F5.3°C 93% Calm Calm 2.0 mph3.2 kmh 30.14 in1020.7 mb 0.00 in0.0 mm 0.00 in0.0 mm 0.00 in0.0 mm
12:30 AM 43.3°F6.3°C 41.7°F5.4°C 94% 1.0 mph WNW1.6 kmh WNW 2.0 mph3.2 kmh 30.14 in1020.7 mb 0.00 in0.0 mm 0.00 in0.0 mm 0.00 in0.0 mm
12:25 AM 43.1°F6.2°C 41.5°F5.3°C 94% Calm Calm 3.0 mph4.8 kmh 30.14 in1020.7 mb 0.00 in0.0 mm 0.00 in0.0 mm 0.00 in0.0 mm
12:20 AM 42.8°F6.0°C 41.2°F5.1°C 94% 1.0 mph WNW1.6 kmh WNW 3.0 mph4.8 kmh 30.14 in1020.7 mb 0.00 in0.0 mm 0.00 in0.0 mm 0.00 in0.0 mm
12:15 AM 42.7°F5.9°C 41.1°F5.1°C 94% Calm Calm 3.0 mph4.8 kmh 30.14 in1020.7 mb 0.00 in0.0 mm 0.00 in0.0 mm 0.00 in0.0 mm
12:10 AM 42.8°F6.0°C 41.2°F5.1°C 94% 3.0 mph WNW4.8 kmh WNW 7.0 mph11.3 kmh 30.13 in1020.3 mb 0.00 in0.0 mm 0.00 in0.0 mm 0.00 in0.0 mm
12:05 AM 42.8°F6.0°C 41.2°F5.1°C 94% 4.0 mph WNW6.4 kmh WNW 7.0 mph11.3 kmh 30.13 in1020.3 mb 0.00 in0.0 mm 0.00 in0.0 mm 0.00 in0.0 mm
12:00 AM 42.6°F5.9°C 41.0°F5.0°C 94% 3.0 mph WNW4.8 kmh WNW 4.0 mph6.4 kmh 30.14 in1020.7 mb 0.00 in0.0 mm 0.00 in0.0 mm 0.00 in0.0 mm